Time;durP1;ratioP1;P1;durP2;ratioP2;P2;SDS_P1;SDS_P2;PMS_P1;PMS_P2;Temp;Humidity;BMP_temperature;BMP_pressure;BME280_temperature;BME280_humidity;BME280_pressure;Samples;Min_cycle;Max_cycle;Signal;HPM_P1;HPM_P2
2023/10/05 00:02:05;;;;;;;16.00;9.77;;;;;;;;;;4378107;32;346836;-84
2023/10/05 00:04:40;;;;;;;18.35;11.77;;;;;;;;;;4374330;32;317665;-85
2023/10/05 00:07:07;;;;;;;17.40;9.98;;;;;;;;;;4384202;32;318801;-85
2023/10/05 00:09:36;;;;;;;15.05;9.52;;;;;;;;;;4373679;32;317957;-85
2023/10/05 00:12:06;;;;;;;17.27;10.27;;;;;;;;;;4379667;32;317871;-85
2023/10/05 00:14:35;;;;;;;20.70;10.65;;;;;;;;;;4370522;32;318880;-84
2023/10/05 00:17:04;;;;;;;19.25;11.60;;;;;;;;;;4382048;32;349718;-85
2023/10/05 00:19:35;;;;;;;21.73;9.02;;;;;;;;;;4373441;32;319058;-83
2023/10/05 00:22:04;;;;;;;15.50;9.65;;;;;;;;;;4380970;32;317860;-81
2023/10/05 00:24:35;;;;;;;14.75;9.52;;;;;;;;;;4371883;32;317903;-83
2023/10/05 00:27:08;;;;;;;16.37;10.30;;;;;;;;;;4382529;32;318097;-84
2023/10/05 00:29:41;;;;;;;18.53;11.13;;;;;;;;;;4369620;32;319032;-86
2023/10/05 00:32:19;;;;;;;23.73;9.48;;;;;;;;;;4381476;32;318799;-84
2023/10/05 00:34:52;;;;;;;16.08;10.07;;;;;;;;;;4369180;32;419790;-84
2023/10/05 00:37:22;;;;;;;17.55;9.75;;;;;;;;;;4381195;32;318885;-85
2023/10/05 00:39:50;;;;;;;16.60;10.27;;;;;;;;;;4365613;32;417548;-83
2023/10/05 00:42:20;;;;;;;15.65;11.15;;;;;;;;;;4383359;32;319233;-84
2023/10/05 00:44:51;;;;;;;20.50;11.15;;;;;;;;;;4367609;32;418540;-83
2023/10/05 00:47:19;;;;;;;18.02;12.77;;;;;;;;;;4380595;32;318914;-84
2023/10/05 00:49:51;;;;;;;18.65;12.40;;;;;;;;;;4352254;32;389681;-84
2023/10/05 00:52:24;;;;;;;19.62;12.30;;;;;;;;;;4380962;32;319024;-83
2023/10/05 00:54:55;;;;;;;17.95;11.60;;;;;;;;;;4369268;32;417972;-82
2023/10/05 00:57:24;;;;;;;19.30;11.38;;;;;;;;;;4372596;32;318874;-83
2023/10/05 00:59:59;;;;;;;18.23;11.23;;;;;;;;;;4378210;32;318914;-84
2023/10/05 01:02:30;;;;;;;21.75;10.70;;;;;;;;;;4372181;32;318990;-83
2023/10/05 01:05:01;;;;;;;20.83;11.15;;;;;;;;;;4380658;32;318960;-83
2023/10/05 01:07:42;;;;;;;17.12;10.70;;;;;;;;;;4372740;32;319128;-85
2023/10/05 01:13:00;;;;;;;21.67;11.25;;;;;;;;;;4365008;32;390655;-84
2023/10/05 01:15:33;;;;;;;21.37;10.93;;;;;;;;;;4372770;32;319092;-83
2023/10/05 01:18:01;;;;;;;21.33;12.23;;;;;;;;;;4378562;32;319277;-83
2023/10/05 01:20:31;;;;;;;18.75;11.90;;;;;;;;;;4372966;32;319072;-83
2023/10/05 01:23:04;;;;;;;19.52;10.88;;;;;;;;;;4380988;32;318840;-84
2023/10/05 01:25:32;;;;;;;17.97;11.83;;;;;;;;;;4368956;32;348944;-84
2023/10/05 01:27:59;;;;;;;17.55;11.60;;;;;;;;;;4380059;32;319158;-84
2023/10/05 01:30:26;;;;;;;16.73;11.27;;;;;;;;;;4373049;32;318852;-84
2023/10/05 01:32:54;;;;;;;15.07;11.73;;;;;;;;;;4382118;32;319045;-83
2023/10/05 01:35:23;;;;;;;21.40;12.90;;;;;;;;;;4373268;32;319102;-86
2023/10/05 01:37:53;;;;;;;26.37;12.52;;;;;;;;;;4379846;32;318723;-84
2023/10/05 01:40:25;;;;;;;24.42;12.57;;;;;;;;;;4382752;32;319181;-84
2023/10/05 01:42:54;;;;;;;20.25;12.07;;;;;;;;;;4368112;32;418464;-82
2023/10/05 01:45:25;;;;;;;19.25;11.05;;;;;;;;;;4373309;32;318992;-85
2023/10/05 01:47:54;;;;;;;19.00;10.85;;;;;;;;;;4379013;32;319043;-84
2023/10/05 01:50:22;;;;;;;20.98;11.25;;;;;;;;;;4372410;32;318921;-86
2023/10/05 01:52:56;;;;;;;22.25;12.50;;;;;;;;;;4381775;32;318863;-82
2023/10/05 01:55:27;;;;;;;17.45;10.50;;;;;;;;;;4369703;32;319174;-84
2023/10/05 01:57:55;;;;;;;19.05;11.63;;;;;;;;;;4380817;32;323681;-82
2023/10/05 02:00:23;;;;;;;17.92;11.02;;;;;;;;;;4375040;32;318845;-85
2023/10/05 02:02:52;;;;;;;21.17;11.55;;;;;;;;;;4384019;32;332388;-85
2023/10/05 02:05:21;;;;;;;17.92;11.52;;;;;;;;;;4385847;32;318694;-83
2023/10/05 02:07:49;;;;;;;24.55;12.45;;;;;;;;;;4368436;32;418050;-83
2023/10/05 02:10:20;;;;;;;17.10;11.65;;;;;;;;;;4386051;32;318713;-84
2023/10/05 02:12:54;;;;;;;16.90;11.45;;;;;;;;;;4370072;32;417974;-83
2023/10/05 02:15:28;;;;;;;17.67;11.10;;;;;;;;;;4374369;32;318847;-85
2023/10/05 02:17:56;;;;;;;19.00;10.88;;;;;;;;;;4381498;32;319061;-84
2023/10/05 02:20:42;;;;;;;21.08;11.77;;;;;;;;;;4370754;32;319184;-85
2023/10/05 02:23:25;;;;;;;21.55;11.63;;;;;;;;;;4385785;32;318780;-83
2023/10/05 02:26:01;;;;;;;17.95;11.45;;;;;;;;;;4368087;32;421871;-84
2023/10/05 02:28:33;;;;;;;17.33;10.77;;;;;;;;;;4374922;32;318888;-84
2023/10/05 02:31:02;;;;;;;17.25;12.10;;;;;;;;;;4382960;32;346764;-84
2023/10/05 02:33:31;;;;;;;18.67;11.60;;;;;;;;;;4374185;32;319028;-84
2023/10/05 02:36:10;;;;;;;18.48;11.70;;;;;;;;;;4383054;32;319229;-83
2023/10/05 02:38:39;;;;;;;18.02;11.00;;;;;;;;;;4374319;32;318989;-83
2023/10/05 02:41:08;;;;;;;16.77;11.57;;;;;;;;;;4383375;32;318961;-86
2023/10/05 02:43:40;;;;;;;17.23;11.23;;;;;;;;;;4374663;32;318987;-83
2023/10/05 02:46:11;;;;;;;20.85;11.75;;;;;;;;;;4385383;32;319193;-84
2023/10/05 02:48:43;;;;;;;16.37;11.20;;;;;;;;;;4375087;32;318979;-83
2023/10/05 02:51:13;;;;;;;17.52;11.60;;;;;;;;;;4382379;32;319079;-83
2023/10/05 02:53:46;;;;;;;20.10;11.98;;;;;;;;;;4367869;32;319081;-83
2023/10/05 02:56:22;;;;;;;16.95;11.90;;;;;;;;;;4385356;32;318876;-83
2023/10/05 02:58:57;;;;;;;18.55;11.40;;;;;;;;;;4371074;32;418193;-85
2023/10/05 03:01:24;;;;;;;16.05;10.95;;;;;;;;;;4374169;32;318921;-86
2023/10/05 03:03:52;;;;;;;25.15;11.73;;;;;;;;;;4380421;32;318945;-85
2023/10/05 03:06:22;;;;;;;16.08;11.25;;;;;;;;;;4384454;32;319036;-85
2023/10/05 03:08:54;;;;;;;16.70;11.55;;;;;;;;;;4372121;32;418547;-82
2023/10/05 03:11:22;;;;;;;25.48;12.70;;;;;;;;;;4379526;32;318982;-82
2023/10/05 03:13:50;;;;;;;18.12;11.45;;;;;;;;;;4378648;32;319029;-82
2023/10/05 03:16:21;;;;;;;19.73;11.98;;;;;;;;;;4385603;32;318987;-82
2023/10/05 03:18:49;;;;;;;22.65;12.25;;;;;;;;;;4372535;32;418317;-82
2023/10/05 03:21:18;;;;;;;17.83;12.18;;;;;;;;;;4385261;32;318830;-86
2023/10/05 03:23:46;;;;;;;18.58;12.00;;;;;;;;;;4368553;32;318958;-83
2023/10/05 03:26:18;;;;;;;20.95;11.90;;;;;;;;;;4383283;32;318987;-85
2023/10/05 03:28:45;;;;;;;21.65;12.68;;;;;;;;;;4372617;32;319068;-85
2023/10/05 03:31:23;;;;;;;19.90;12.30;;;;;;;;;;4385215;32;317804;-84
2023/10/05 03:33:53;;;;;;;24.37;12.02;;;;;;;;;;4366191;32;418066;-85
2023/10/05 03:36:20;;;;;;;17.33;11.68;;;;;;;;;;4384494;32;318984;-84
2023/10/05 03:38:55;;;;;;;13.73;10.90;;;;;;;;;;4371246;32;418103;-82
2023/10/05 03:41:29;;;;;;;20.88;11.23;;;;;;;;;;4371752;32;358296;-86
2023/10/05 03:43:55;;;;;;;21.15;12.50;;;;;;;;;;4380392;32;318970;-84
2023/10/05 03:46:25;;;;;;;19.67;13.02;;;;;;;;;;4368897;32;351248;-82
2023/10/05 03:48:59;;;;;;;23.50;12.85;;;;;;;;;;4382332;32;319336;-84
2023/10/05 03:51:28;;;;;;;21.12;12.70;;;;;;;;;;4374029;32;319145;-82
2023/10/05 03:53:56;;;;;;;22.85;13.98;;;;;;;;;;4379635;32;336972;-82
2023/10/05 03:56:27;;;;;;;23.35;13.68;;;;;;;;;;4374741;32;319005;-85
2023/10/05 03:58:55;;;;;;;29.12;13.82;;;;;;;;;;4383461;32;318931;-82
2023/10/05 04:01:23;;;;;;;17.23;12.52;;;;;;;;;;4369584;32;319307;-86
2023/10/05 04:03:50;;;;;;;20.83;13.57;;;;;;;;;;4379519;32;319247;-85
2023/10/05 04:06:21;;;;;;;20.92;13.40;;;;;;;;;;4384383;32;319037;-84
2023/10/05 04:08:50;;;;;;;22.25;12.68;;;;;;;;;;4370034;32;418141;-84
2023/10/05 04:11:18;;;;;;;22.33;12.23;;;;;;;;;;4382972;32;318685;-84
2023/10/05 04:13:46;;;;;;;26.30;13.57;;;;;;;;;;4369004;32;319197;-84
2023/10/05 04:16:26;;;;;;;23.30;12.65;;;;;;;;;;4384640;32;318812;-83
2023/10/05 04:18:54;;;;;;;27.87;12.95;;;;;;;;;;4368234;32;418188;-84
2023/10/05 04:21:23;;;;;;;24.98;13.82;;;;;;;;;;4370566;32;318814;-86
2023/10/05 04:23:53;;;;;;;20.17;13.90;;;;;;;;;;4378524;32;318970;-84
2023/10/05 04:26:27;;;;;;;31.55;13.43;;;;;;;;;;4368860;32;358014;-84
2023/10/05 04:28:54;;;;;;;38.20;14.55;;;;;;;;;;4382204;32;319024;-84
2023/10/05 04:31:28;;;;;;;32.42;13.85;;;;;;;;;;4371548;32;378738;-83
2023/10/05 04:33:57;;;;;;;19.37;12.75;;;;;;;;;;4382154;32;318938;-85
2023/10/05 04:36:26;;;;;;;24.23;14.07;;;;;;;;;;4371505;32;318862;-84
2023/10/05 04:38:54;;;;;;;24.02;14.07;;;;;;;;;;4384466;32;317755;-87
2023/10/05 04:41:28;;;;;;;26.35;13.35;;;;;;;;;;4370772;32;318816;-87
2023/10/05 04:43:56;;;;;;;26.02;14.10;;;;;;;;;;4375916;32;318791;-87
2023/10/05 04:46:24;;;;;;;20.48;13.52;;;;;;;;;;4371700;32;367923;-83
2023/10/05 04:49:07;;;;;;;38.28;14.93;;;;;;;;;;4381782;32;318767;-84
2023/10/05 04:51:41;;;;;;;23.98;13.15;;;;;;;;;;4364758;32;319128;-87
2023/10/05 04:54:10;;;;;;;28.27;15.30;;;;;;;;;;4381612;32;318972;-85
2023/10/05 04:56:53;;;;;;;23.52;15.05;;;;;;;;;;4371961;32;318747;-86
2023/10/05 05:02:22;;;;;;;24.20;15.70;;;;;;;;;;4367831;32;391238;-85
2023/10/05 05:05:32;;;;;;;27.50;15.23;;;;;;;;;;4368838;32;418551;-85
2023/10/05 05:07:59;;;;;;;25.77;15.60;;;;;;;;;;4367882;32;391082;-85
2023/10/05 05:10:26;;;;;;;29.35;15.80;;;;;;;;;;4372055;32;318873;-85
2023/10/05 05:12:54;;;;;;;39.05;16.08;;;;;;;;;;4382234;32;318735;-83
2023/10/05 05:15:21;;;;;;;19.75;14.43;;;;;;;;;;4374237;32;318827;-86
2023/10/05 05:17:49;;;;;;;25.05;14.93;;;;;;;;;;4378425;32;319098;-84
2023/10/05 05:20:17;;;;;;;45.17;16.42;;;;;;;;;;4383632;32;318865;-85
2023/10/05 05:22:46;;;;;;;35.88;14.93;;;;;;;;;;4370593;32;319008;-85
2023/10/05 05:25:19;;;;;;;40.08;15.23;;;;;;;;;;4386691;32;319117;-85
2023/10/05 05:27:48;;;;;;;40.25;15.55;;;;;;;;;;4374044;32;388971;-86
2023/10/05 05:30:24;;;;;;;40.08;18.60;;;;;;;;;;4386003;32;318919;-86
2023/10/05 05:32:54;;;;;;;48.72;17.25;;;;;;;;;;4373195;32;419503;-86
2023/10/05 05:35:24;;;;;;;29.55;14.32;;;;;;;;;;4377111;32;318989;-87
2023/10/05 05:37:56;;;;;;;24.37;13.80;;;;;;;;;;4379945;32;319117;-87
2023/10/05 05:40:28;;;;;;;31.37;12.93;;;;;;;;;;4377310;32;318399;-85
2023/10/05 05:42:57;;;;;;;23.10;13.02;;;;;;;;;;4392629;32;318947;-87
2023/10/05 05:45:25;;;;;;;20.60;12.93;;;;;;;;;;4380869;32;318771;-85
2023/10/05 05:47:54;;;;;;;24.25;11.95;;;;;;;;;;4381969;32;358208;-84
2023/10/05 05:50:23;;;;;;;25.40;13.48;;;;;;;;;;4375578;32;318993;-83
2023/10/05 05:52:52;;;;;;;25.92;12.82;;;;;;;;;;4382852;32;318896;-84
2023/10/05 05:55:21;;;;;;;25.73;14.35;;;;;;;;;;4385333;32;318941;-87
2023/10/05 05:57:51;;;;;;;27.13;13.55;;;;;;;;;;4367355;32;418081;-85
2023/10/05 06:00:19;;;;;;;24.85;13.23;;;;;;;;;;4384333;32;318692;-83
2023/10/05 06:02:47;;;;;;;25.67;14.05;;;;;;;;;;4371846;32;418125;-84
2023/10/05 06:05:15;;;;;;;30.23;15.55;;;;;;;;;;4384566;32;318611;-85
2023/10/05 06:07:44;;;;;;;29.87;13.38;;;;;;;;;;4369208;32;318895;-85
2023/10/05 06:10:13;;;;;;;44.67;14.80;;;;;;;;;;4385297;32;318764;-85
2023/10/05 06:12:41;;;;;;;25.63;15.37;;;;;;;;;;4365141;32;319034;-84
2023/10/05 06:15:13;;;;;;;24.25;12.73;;;;;;;;;;4383736;32;318914;-86
2023/10/05 06:17:41;;;;;;;29.83;14.18;;;;;;;;;;4369752;32;318985;-89
2023/10/05 06:20:13;;;;;;;20.55;13.88;;;;;;;;;;4384523;32;319076;-87
2023/10/05 06:22:43;;;;;;;28.45;13.48;;;;;;;;;;4372380;32;319060;-87
2023/10/05 06:25:11;;;;;;;20.58;13.80;;;;;;;;;;4385274;32;317628;-88
2023/10/05 06:27:43;;;;;;;27.70;14.07;;;;;;;;;;4372511;32;318814;-88
2023/10/05 06:30:13;;;;;;;20.40;13.30;;;;;;;;;;4385215;32;318592;-87
2023/10/05 06:32:42;;;;;;;28.42;14.48;;;;;;;;;;4374317;32;318818;-87
2023/10/05 06:35:11;;;;;;;26.42;15.13;;;;;;;;;;4386132;32;318793;-88
2023/10/05 06:37:41;;;;;;;25.60;16.08;;;;;;;;;;4370981;32;318788;-89
2023/10/05 06:40:12;;;;;;;25.20;14.87;;;;;;;;;;4385706;32;318819;-89
2023/10/05 06:42:41;;;;;;;25.20;15.77;;;;;;;;;;4373176;32;318944;-91
2023/10/05 06:45:11;;;;;;;24.63;15.25;;;;;;;;;;4384131;32;318844;-92
2023/10/05 06:47:43;;;;;;;32.27;15.43;;;;;;;;;;4372846;32;318725;-89
2023/10/05 06:50:11;;;;;;;22.83;13.88;;;;;;;;;;4385634;32;318819;-91
2023/10/05 06:52:42;;;;;;;21.25;14.68;;;;;;;;;;4372009;32;318719;-92
2023/10/05 06:55:12;;;;;;;27.55;15.27;;;;;;;;;;4384184;32;319157;-91
2023/10/05 06:57:40;;;;;;;22.55;15.02;;;;;;;;;;4371298;32;318712;-87
2023/10/05 07:00:16;;;;;;;22.60;14.70;;;;;;;;;;4382360;32;318826;-87
2023/10/05 07:02:45;;;;;;;31.37;14.70;;;;;;;;;;4373157;32;318791;-88
2023/10/05 07:05:13;;;;;;;23.10;15.27;;;;;;;;;;4383504;32;317654;-87
2023/10/05 07:07:41;;;;;;;17.98;14.85;;;;;;;;;;4367242;32;318440;-90
2023/10/05 07:10:10;;;;;;;23.05;14.05;;;;;;;;;;4382919;32;318821;-86
2023/10/05 07:12:41;;;;;;;26.35;14.85;;;;;;;;;;4373726;32;318729;-86
2023/10/05 07:15:10;;;;;;;23.58;15.50;;;;;;;;;;4383650;32;318750;-86
2023/10/05 07:17:40;;;;;;;19.52;14.10;;;;;;;;;;4372070;32;319025;-89
2023/10/05 07:20:11;;;;;;;32.92;17.55;;;;;;;;;;4383334;32;318630;-86
2023/10/05 07:22:40;;;;;;;23.95;15.45;;;;;;;;;;4374210;32;318645;-91
2023/10/05 07:25:10;;;;;;;21.33;15.65;;;;;;;;;;4384603;32;317883;-92
2023/10/05 07:27:38;;;;;;;30.08;15.25;;;;;;;;;;4368159;32;318906;-87
2023/10/05 07:30:08;;;;;;;21.73;16.02;;;;;;;;;;4384023;32;318627;-89
2023/10/05 07:32:35;;;;;;;37.40;16.95;;;;;;;;;;4373000;32;318726;-92
2023/10/05 07:35:05;;;;;;;19.15;15.05;;;;;;;;;;4383003;32;319090;-92
2023/10/05 07:37:36;;;;;;;21.65;14.70;;;;;;;;;;4369323;32;359679;-87
2023/10/05 07:40:05;;;;;;;23.20;15.27;;;;;;;;;;4377937;32;333361;-92
2023/10/05 07:42:33;;;;;;;20.48;15.95;;;;;;;;;;4375436;32;319178;-94
2023/10/05 07:45:01;;;;;;;30.85;15.18;;;;;;;;;;4381156;32;318489;-91
2023/10/05 07:47:28;;;;;;;28.15;16.15;;;;;;;;;;4369396;32;318826;-90
2023/10/05 07:49:56;;;;;;;25.77;15.20;;;;;;;;;;4380664;32;318808;-91
2023/10/05 07:52:23;;;;;;;22.52;15.10;;;;;;;;;;4367920;32;355276;-91
2023/10/05 07:54:52;;;;;;;17.75;13.48;;;;;;;;;;4384096;32;318704;-93
2023/10/05 07:57:20;;;;;;;23.23;14.95;;;;;;;;;;4381969;32;318796;-91
2023/10/05 07:59:48;;;;;;;21.75;14.57;;;;;;;;;;4365759;32;418085;-89
2023/10/05 08:02:18;;;;;;;22.42;15.00;;;;;;;;;;4383254;32;318685;-89
2023/10/05 08:04:45;;;;;;;25.23;16.80;;;;;;;;;;4359590;32;318749;-87
2023/10/05 08:07:13;;;;;;;20.90;14.95;;;;;;;;;;4383333;32;317830;-92
2023/10/05 08:09:42;;;;;;;25.00;14.70;;;;;;;;;;4367258;32;318928;-93
2023/10/05 08:12:16;;;;;;;17.77;13.50;;;;;;;;;;4385621;32;318734;-92
2023/10/05 08:14:44;;;;;;;21.73;15.40;;;;;;;;;;4351319;32;318695;-90
2023/10/05 08:17:12;;;;;;;19.77;14.50;;;;;;;;;;4381767;32;318949;-92
2023/10/05 08:19:42;;;;;;;27.77;15.07;;;;;;;;;;4338600;32;319410;-90
2023/10/05 08:22:11;;;;;;;23.92;14.73;;;;;;;;;;4384203;32;317536;-91
2023/10/05 08:24:39;;;;;;;23.73;13.83;;;;;;;;;;4357637;32;318886;-94
2023/10/05 08:27:11;;;;;;;25.85;14.57;;;;;;;;;;4382713;32;318825;-90
2023/10/05 08:29:42;;;;;;;25.15;13.73;;;;;;;;;;4370342;32;318717;-87
2023/10/05 08:32:13;;;;;;;23.00;14.48;;;;;;;;;;4381404;32;319197;-90
2023/10/05 08:34:41;;;;;;;26.37;15.38;;;;;;;;;;4371958;32;318746;-90
2023/10/05 08:37:11;;;;;;;26.83;15.00;;;;;;;;;;4383375;32;318792;-90
2023/10/05 08:39:39;;;;;;;22.17;15.48;;;;;;;;;;4369046;32;318806;-89
2023/10/05 08:42:07;;;;;;;19.33;13.27;;;;;;;;;;4371833;32;318965;-89
2023/10/05 08:44:38;;;;;;;20.37;13.45;;;;;;;;;;4370926;32;318964;-93
2023/10/05 08:47:10;;;;;;;25.90;13.02;;;;;;;;;;4382325;32;318554;-90
2023/10/05 08:49:38;;;;;;;17.30;12.73;;;;;;;;;;4368073;32;319171;-88
2023/10/05 08:52:13;;;;;;;20.85;12.27;;;;;;;;;;4382729;32;318708;-89
2023/10/05 08:54:41;;;;;;;39.77;14.10;;;;;;;;;;4370833;32;334157;-88
2023/10/05 08:57:10;;;;;;;25.05;11.12;;;;;;;;;;4382052;32;319178;-89
2023/10/05 08:59:39;;;;;;;30.65;12.75;;;;;;;;;;4370986;32;318753;-93
2023/10/05 09:02:09;;;;;;;15.15;10.48;;;;;;;;;;4377761;32;318941;-91
2023/10/05 09:04:44;;;;;;;18.42;10.27;;;;;;;;;;4370828;32;318742;-88
2023/10/05 09:07:28;;;;;;;19.17;9.00;;;;;;;;;;4382042;32;318746;-92
2023/10/05 09:09:56;;;;;;;20.55;9.88;;;;;;;;;;4363335;32;417213;-93
2023/10/05 09:15:10;;;;;;;19.02;9.93;;;;;;;;;;4381106;32;317784;-92
2023/10/05 09:17:58;;;;;;;24.60;10.13;;;;;;;;;;4363878;32;317710;-92
2023/10/05 09:20:30;;;;;;;17.65;10.07;;;;;;;;;;4371502;32;319064;-87
2023/10/05 09:23:00;;;;;;;19.05;10.55;;;;;;;;;;4381580;32;318919;-90
2023/10/05 09:25:36;;;;;;;18.65;9.60;;;;;;;;;;4370956;32;350156;-91
2023/10/05 09:28:13;;;;;;;12.98;9.35;;;;;;;;;;4379675;32;317760;-91
2023/10/05 09:30:55;;;;;;;13.40;9.20;;;;;;;;;;4371574;32;317762;-90
2023/10/05 09:33:26;;;;;;;20.35;9.45;;;;;;;;;;4363466;32;317720;-89
2023/10/05 09:35:56;;;;;;;21.77;10.70;;;;;;;;;;4375929;32;317719;-88
2023/10/05 09:38:24;;;;;;;16.73;8.32;;;;;;;;;;4370157;32;318719;-90
2023/10/05 09:40:55;;;;;;;14.65;8.60;;;;;;;;;;4382134;32;318482;-90
2023/10/05 09:43:25;;;;;;;17.00;10.00;;;;;;;;;;4371505;32;317690;-91
2023/10/05 09:45:53;;;;;;;15.13;9.75;;;;;;;;;;4380810;32;317943;-92
2023/10/05 09:48:22;;;;;;;23.92;10.27;;;;;;;;;;4380893;32;317635;-91
2023/10/05 09:50:53;;;;;;;16.27;8.50;;;;;;;;;;4367314;32;417966;-89
2023/10/05 09:53:21;;;;;;;32.13;8.25;;;;;;;;;;4382407;32;317814;-92
2023/10/05 09:55:53;;;;;;;17.58;8.82;;;;;;;;;;4364867;32;417047;-94
2023/10/05 09:58:21;;;;;;;13.10;8.82;;;;;;;;;;4382271;32;325948;-95
2023/10/05 10:00:55;;;;;;;16.60;8.88;;;;;;;;;;4367538;32;420163;-88
2023/10/05 10:03:22;;;;;;;23.45;8.85;;;;;;;;;;4371633;32;317889;-92
2023/10/05 10:05:55;;;;;;;17.12;8.18;;;;;;;;;;4379479;32;317698;-94
2023/10/05 10:08:26;;;;;;;20.42;9.13;;;;;;;;;;4370119;32;363713;-94
2023/10/05 10:11:03;;;;;;;14.00;8.20;;;;;;;;;;4382281;32;317471;-95
2023/10/05 10:13:37;;;;;;;12.50;8.85;;;;;;;;;;4368556;32;317820;-90
2023/10/05 10:16:17;;;;;;;13.07;8.65;;;;;;;;;;4379538;32;317697;-95
2023/10/05 10:18:45;;;;;;;12.40;9.40;;;;;;;;;;4371899;32;317760;-93
2023/10/05 10:21:24;;;;;;;16.87;9.60;;;;;;;;;;4382345;32;317651;-91
2023/10/05 10:24:06;;;;;;;19.30;8.68;;;;;;;;;;4365755;32;417308;-90
2023/10/05 10:26:40;;;;;;;20.60;9.17;;;;;;;;;;4372303;32;317604;-94
2023/10/05 10:29:11;;;;;;;13.93;8.68;;;;;;;;;;4384731;32;317626;-86
2023/10/05 10:31:47;;;;;;;17.12;9.02;;;;;;;;;;4369624;32;317587;-90
2023/10/05 10:34:30;;;;;;;19.02;9.55;;;;;;;;;;4383517;32;317564;-91
2023/10/05 10:36:59;;;;;;;15.25;9.25;;;;;;;;;;4369584;32;418027;-95
2023/10/05 10:39:29;;;;;;;20.05;9.27;;;;;;;;;;4371816;32;318068;-94
2023/10/05 10:42:07;;;;;;;14.48;8.65;;;;;;;;;;4381897;32;317581;-87
2023/10/05 10:47:22;;;;;;;15.23;8.20;;;;;;;;;;4380647;32;317819;-93
2023/10/05 10:50:11;;;;;;;17.85;9.45;;;;;;;;;;4366214;32;421392;-93
2023/10/05 10:52:42;;;;;;;17.23;9.98;;;;;;;;;;4373176;32;318106;-92
2023/10/05 10:55:14;;;;;;;12.82;8.57;;;;;;;;;;4384339;32;317742;-92
2023/10/05 10:57:46;;;;;;;13.23;8.73;;;;;;;;;;4370810;32;317617;-85
2023/10/05 11:03:09;;;;;;;15.50;8.95;;;;;;;;;;4372943;32;389011;-82
2023/10/05 11:05:39;;;;;;;17.15;8.55;;;;;;;;;;4371130;32;348782;-85
2023/10/05 11:08:11;;;;;;;17.05;8.02;;;;;;;;;;4383704;32;317661;-85
2023/10/05 11:10:40;;;;;;;13.85;9.27;;;;;;;;;;4371587;32;317664;-85
2023/10/05 11:13:14;;;;;;;13.07;8.65;;;;;;;;;;4383170;32;317642;-85
2023/10/05 11:16:00;;;;;;;16.33;9.23;;;;;;;;;;4359778;32;347680;-85
2023/10/05 11:18:30;;;;;;;18.65;7.95;;;;;;;;;;4373033;32;317945;-84
2023/10/05 11:21:06;;;;;;;17.67;9.10;;;;;;;;;;4382342;32;317723;-85
2023/10/05 11:33:05;;;;;;;13.88;9.18;;;;;;;;;;4375828;32;390013;-89
2023/10/05 11:35:42;;;;;;;14.95;8.35;;;;;;;;;;4377689;32;317645;-89
2023/10/05 11:38:15;;;;;;;13.65;9.05;;;;;;;;;;4386254;32;317665;-90
2023/10/05 11:40:49;;;;;;;17.30;9.23;;;;;;;;;;4377152;32;317793;-91
2023/10/05 11:43:18;;;;;;;16.10;8.23;;;;;;;;;;4388251;32;317893;-89
2023/10/05 11:45:59;;;;;;;19.85;9.63;;;;;;;;;;4373516;32;317868;-90
2023/10/05 11:48:40;;;;;;;17.05;8.80;;;;;;;;;;4377316;32;317815;-90
2023/10/05 11:51:11;;;;;;;20.55;9.20;;;;;;;;;;4385522;32;317606;-90
2023/10/05 11:53:43;;;;;;;11.00;8.05;;;;;;;;;;4370326;32;318280;-91
2023/10/05 11:56:11;;;;;;;14.30;8.60;;;;;;;;;;4383219;32;317804;-90
2023/10/05 11:58:41;;;;;;;15.18;8.52;;;;;;;;;;4375774;32;317630;-91
2023/10/05 12:01:08;;;;;;;15.65;9.23;;;;;;;;;;4387457;32;317854;-87
2023/10/05 12:03:45;;;;;;;15.35;8.00;;;;;;;;;;4376302;32;317943;-90
2023/10/05 12:06:15;;;;;;;15.45;8.48;;;;;;;;;;4385537;32;317636;-89
2023/10/05 12:08:43;;;;;;;14.23;8.52;;;;;;;;;;4375783;32;318023;-91
2023/10/05 12:11:13;;;;;;;11.48;8.15;;;;;;;;;;4389000;32;317778;-91
2023/10/05 12:13:46;;;;;;;13.18;8.88;;;;;;;;;;4376491;32;317680;-92
2023/10/05 12:16:14;;;;;;;26.77;9.30;;;;;;;;;;4384134;32;318028;-89
2023/10/05 12:18:43;;;;;;;11.57;9.27;;;;;;;;;;4373178;32;318129;-91
2023/10/05 12:21:11;;;;;;;13.82;9.30;;;;;;;;;;4379997;32;316975;-90
2023/10/05 12:23:41;;;;;;;15.43;8.80;;;;;;;;;;4369933;32;317795;-88
2023/10/05 12:26:10;;;;;;;14.73;7.85;;;;;;;;;;4381420;32;317644;-90
2023/10/05 12:28:40;;;;;;;13.73;8.88;;;;;;;;;;4373840;32;317770;-91
2023/10/05 12:31:09;;;;;;;13.65;8.10;;;;;;;;;;4383934;32;317866;-91
2023/10/05 12:33:43;;;;;;;12.63;8.35;;;;;;;;;;4369987;32;317910;-91
2023/10/05 12:36:16;;;;;;;19.58;9.02;;;;;;;;;;4382848;32;318164;-90
2023/10/05 12:38:43;;;;;;;13.07;9.27;;;;;;;;;;4372809;32;317593;-90
2023/10/05 12:41:14;;;;;;;13.10;7.75;;;;;;;;;;4380715;32;317831;-90
2023/10/05 12:43:42;;;;;;;11.73;8.10;;;;;;;;;;4368680;32;317689;-89
2023/10/05 12:46:11;;;;;;;14.00;8.80;;;;;;;;;;4380385;32;317641;-91
2023/10/05 12:48:39;;;;;;;15.45;8.57;;;;;;;;;;4372773;32;318016;-89
2023/10/05 12:51:08;;;;;;;12.10;8.63;;;;;;;;;;4382763;32;317734;-90
2023/10/05 12:53:39;;;;;;;19.02;9.43;;;;;;;;;;4369871;32;317956;-89
2023/10/05 12:56:21;;;;;;;21.52;9.25;;;;;;;;;;4381723;32;317894;-89
2023/10/05 12:58:49;;;;;;;12.27;7.97;;;;;;;;;;4368921;32;387780;-91
2023/10/05 13:01:17;;;;;;;15.02;8.88;;;;;;;;;;4383844;32;317652;-89
2023/10/05 13:03:45;;;;;;;16.00;9.50;;;;;;;;;;4370472;32;317670;-89
2023/10/05 13:06:16;;;;;;;18.27;9.13;;;;;;;;;;4386483;32;317800;-89
